Tiempo atmosférico en la estación meteorológica de Medina Sidonia, Cádiz (90 m.)



Fecha
DESCASC
Temp. máxima en grados centígrados (hora)
DESCASC
Temp. mínima en grados centígrados (hora)
DESCASC
Temp. media en grados centígrados
DESCASC
Racha de viento máxima en m/sg (hora)
DESCASC
Velocidad máxima media en intervalos de 10 minutos(hora)
DESCASC
Precipitaciones diarias en mm
DESCASC
Precipitaciones de 00:00 a 06:00 en mm
DESCASC
Precipitaciones de 06:00 a 12:00 en mm
DESCASC
Precipitaciones de 12:00 a 18:00 en mm
DESCASC
Precipitaciones de 18:00 a 24:00 en mm
DESCASC
20-10-2019 19.8 (16:10) 11.5 (23:50) 15.6 9.17 (01:10) 6.11 (16:50) 1 1 0 0 0
19-10-2019 22.8 (12:50) 15 (06:10) 18.9 12.78 (22:10) 7.5 (22:10) 5.2 0 0 0.8 4.4
18-10-2019 25.7 (16:20) 12.1 (07:30) 18.9 8.89 (17:10) 6.11 (17:10) 0 0 0 0 0
17-10-2019 23.9 (15:30) 8.1 (00:00) 16 8.89 (17:50) 6.67 (18:50) 0 0 0 0 0
16-10-2019 25.3 (15:30) 6.5 (00:00) 15.9 8.89 (17:00) 6.11 (18:50) 0 0 0 0 0
15-10-2019 22.9 (16:40) 11.4 (00:00) 17.1 7.78 (14:10) 4.44 (00:10) 0 0 0 0 0
14-10-2019 22.7 (13:20) 17.4 (00:00) 20.1 13.33 (16:40) 8.33 (16:50) 1 0 1 0 0
13-10-2019 28.6 (16:10) 17.3 (00:00) 22.9 12.5 (15:20) 9.17 (14:30) 0 0 0 0 0
12-10-2019 28.4 (15:30) 19.3 (00:00) 23.8 14.17 (11:40) 10.83 (11:50) 0 0 0 0 0
11-10-2019 26.8 (14:50) 21.3 (00:00) 24 20 (01:40) 13.33 (12:20) 0 0 0 0 0
10-10-2019 27.1 (14:20) 19 (00:00) 23.1 18.89 (12:20) 13.61 (15:50) 0 0 0 0 0
09-10-2019 31.1 (15:40) 18 (00:00) 24.6 10.83 (01:30) 7.78 (01:30) 0 0 0 0 0
08-10-2019 28.3 (16:40) 15.7 (00:00) 22 19.17 (16:00) 13.61 (16:30) 0 0 0 0 0
07-10-2019 32 (16:30) 12 (00:00) 22 9.17 (18:20) 6.94 (18:10) 0 0 0 0 0
06-10-2019 30 (16:20) 13.1 (00:00) 21.6 10 (18:50) 7.78 (18:50) 0 0 0 0 0
05-10-2019 26.8 (14:40) 14.2 (00:00) 20.5 10 (17:50) 7.5 (18:20) 0 0 0 0 0
04-10-2019 28.7 (17:00) 12 (00:00) 20.4 8.89 (16:50) 5.56 (19:10) 0 0 0 0 0
03-10-2019 27 (14:40) 13.1 (00:00) 20.1 9.72 (18:30) 6.39 (15:40) 0 0 0 0 0
02-10-2019 24.2 (17:10) 15.6 (00:00) 19.9 9.72 (15:40) 6.67 (15:40) 0 0 0 0 0
01-10-2019 27.9 (14:30) 13.9 (00:00) 20.9 12.5 (21:00) 9.17 (20:50) 0 0 0 0 0
30-09-2019 33.7 (15:30) 15.1 (00:00) 24.4 8.33 (15:40) 5.83 (20:10) 0.2 0 0.2 0 0
29-09-2019 31.6 (16:20) 17.7 (00:00) 24.7 7.22 (10:30) 5.28 (10:20) 0 0 0 0 0
28-09-2019 34.7 (15:30) 12.7 (00:00) 23.7 8.06 (16:30) 5.56 (18:10) 0 0 0 0 0
27-09-2019 30.5 (13:40) 15.7 (00:00) 23.1 8.06 (15:50) 5.28 (15:50) 0 0 0 0 0
26-09-2019 32 (15:10) 12.8 (00:00) 22.4 8.89 (15:20) 5.28 (17:30) 0 0 0 0 0
25-09-2019 -- (--) -- (--) -- -- (--) -- (--) 0 0 0 0 0
24-09-2019 32.3 (14:50) 13 (00:00) 22.6 11.11 (19:20) 8.33 (19:20) 0 0 0 0 0
23-09-2019 31.3 (17:00) 12.9 (00:00) 22.1 9.44 (18:10) 7.5 (19:50) 0 0 0 0 0
22-09-2019 25.2 (16:40) 19 (00:00) 22.1 9.17 (17:00) 7.22 (21:10) 2.6 0 2.4 0.2 0

Gráficas

Temp. máximas Temp. mínimas Temp. medias Precipitaciones Rachas de viento máximas Velocidades máximas media en intervalos de 10 minutos

Datos horarios

Fecha y hora oficial Temperatura (ºC) Velocidad del viento (km/h) Dirección del viento Racha (km/h) Dirección de racha Precipitación (mm) Presión (hPa) Tendencia (hPa) Humedad (%)
2019-10-21 23:00:00 13.5 4 Nordeste 9 Noroeste 0 -- -- 66
2019-10-21 22:00:00 14.6 10 Noroeste 18 Noroeste 0 -- -- 62
2019-10-21 21:00:00 15.3 12 Oeste 19 Oeste 0 -- -- 60
2019-10-21 20:00:00 16.8 14 Oeste 26 Oeste 0 -- -- 52
2019-10-21 19:00:00 19 20 Oeste 28 Oeste 0 -- -- 46
2019-10-21 18:00:00 20.7 10 Noroeste 24 Oeste 0 -- -- 40
2019-10-21 17:00:00 21.2 9 Noroeste 23 Oeste 0 -- -- 40
2019-10-21 16:00:00 21.4 6 Noroeste 16 Noroeste 0 -- -- 39
2019-10-21 15:00:00 19.9 7 Noroeste 17 Oeste 0 -- -- 45
2019-10-21 14:00:00 19.9 6 Norte 17 Nordeste 0 -- -- 46
2019-10-21 13:00:00 19.9 6 Noroeste 11 Este 0 -- -- 48
2019-10-21 12:00:00 17.5 5 Este 10 Este 0 -- -- 67
2019-10-21 11:00:00 14.4 4 Este 7 Sudeste 0 -- -- 83
2019-10-21 10:00:00 10.5 0 Calma 5 Nordeste 0 -- -- 92
2019-10-21 09:00:00 8.7 2 Noroeste 6 Oeste 0 -- -- 95
2019-10-21 08:00:00 8.8 3 Noroeste 6 Oeste 0 -- -- 95
2019-10-21 07:00:00 8.5 0 Calma 5 Oeste 0 -- -- 92
2019-10-21 06:00:00 8.7 3 Oeste 4 Oeste 0 -- -- 94
2019-10-21 05:00:00 9.1 0 Calma 4 Este 0 -- -- 91
2019-10-21 04:00:00 9.5 0 Calma 2 Noroeste 0 -- -- 91
2019-10-21 03:00:00 10.1 2 Noroeste 5 Oeste 0 -- -- 91
2019-10-21 02:00:00 10.7 2 Oeste 5 Noroeste 0 -- -- 88
2019-10-21 01:00:00 10.8 5 Noroeste 6 Noroeste 0 -- -- 88
2019-10-21 00:00:00 11.6 0 Calma 5 Noroeste 0 -- -- 84
2019-10-20 23:00:00 12.2 3 Este 7 Nordeste 0 -- -- 82
2019-10-20 22:00:00 13.3 4 Oeste 10 Oeste 0 -- -- 76
2019-10-20 21:00:00 14.1 9 Oeste 11 Oeste 0 -- -- 76
2019-10-20 20:00:00 15.9 9 Oeste 23 Oeste 0 -- -- 67
2019-10-20 19:00:00 18.3 17 Oeste 29 Oeste 0 -- -- 55
2019-10-20 18:00:00 19 19 Oeste 31 Oeste 0 -- -- 50
2019-10-20 17:00:00 19.6 21 Oeste 32 Oeste 0 -- -- 45
2019-10-20 16:00:00 19.7 19 Oeste 29 Oeste 0 -- -- 47
2019-10-20 15:00:00 19.1 17 Oeste 29 Oeste 0 -- -- 56
2019-10-20 14:00:00 18.5 19 Oeste 26 Oeste 0 -- -- 55
2019-10-20 13:00:00 18 13 Noroeste 28 Noroeste 0 -- -- 61
2019-10-20 12:00:00 16.7 13 Noroeste 23 Noroeste 0 -- -- 70
2019-10-20 11:00:00 15.5 6 Noroeste 13 Noroeste 0 -- -- 77
2019-10-20 10:00:00 14.2 2 Este 6 Norte 0 -- -- 88
2019-10-20 09:00:00 12.3 3 Noroeste 10 Oeste 0 -- -- 91
2019-10-20 08:00:00 12.4 5 Noroeste 8 Noroeste 0 -- -- 91
2019-10-20 07:00:00 12.9 3 Norte 12 Oeste 0 -- -- 91
2019-10-20 06:00:00 14.2 4 Oeste 11 Oeste 0 -- -- 88
2019-10-20 05:00:00 14.6 8 Oeste 12 Noroeste 0.2 -- -- 87
2019-10-20 04:00:00 14.8 4 Norte 21 Oeste 0.6 -- -- 88
2019-10-20 03:00:00 15.7 12 Noroeste 21 Oeste 0.2 -- -- 83
2019-10-20 02:00:00 16.4 9 Noroeste 33 Noroeste 0 -- -- 83
2019-10-20 01:00:00 17.3 13 Noroeste 21 Noroeste 0 -- -- 85
2019-10-20 00:00:00 17.5 10 Oeste 43 Oeste 0.2 -- -- 91
2019-10-19 23:00:00 18.3 17 Oeste 46 Oeste 3.6 -- -- 91
2019-10-19 22:00:00 20.7 23 Sudoeste 39 Oeste 0.6 -- -- 83
2019-10-19 21:00:00 20.6 21 Sudoeste 41 Sur 0 -- -- 83
2019-10-19 20:00:00 20.5 21 Sudoeste 39 Sur 0 -- -- 83
2019-10-19 19:00:00 20.7 23 Sudoeste 40 Sur 0 -- -- 82
2019-10-19 18:00:00 21.4 19 Sudoeste 37 Sudoeste 0 -- -- 78
2019-10-19 17:00:00 22.2 20 Sudoeste 42 Sudoeste 0 -- -- 72
2019-10-19 16:00:00 21.4 16 Sudoeste 38 Sudoeste 0 -- -- 79
2019-10-19 15:00:00 20.7 14 Sudoeste 37 Oeste 0.8 -- -- 83
2019-10-19 14:00:00 22.1 19 Sudoeste 31 Sur 0 -- -- 69
2019-10-19 13:00:00 22.8 21 Sudoeste 31 Sudoeste 0 -- -- 61
2019-10-19 12:00:00 22.2 13 Sudoeste 25 Oeste 0 -- -- 61
2019-10-19 11:00:00 20.8 11 Sur 18 Sudeste 0 -- -- 69
2019-10-19 10:00:00 17.8 2 Este 12 Sur 0 -- -- 81
2019-10-19 09:00:00 16.1 3 Sudeste 9 Sur 0 -- -- 85
2019-10-19 08:00:00 15.6 0 Calma 3 Sudoeste 0 -- -- 86
2019-10-19 07:00:00 15.2 0 Calma 3 Noroeste 0 -- -- 87
2019-10-19 06:00:00 15.1 0 Calma 5 Sudoeste 0 -- -- 87
2019-10-19 05:00:00 16.1 4 Oeste 6 Sudoeste 0 -- -- 87
2019-10-19 04:00:00 16.9 2 Oeste 5 Oeste 0 -- -- 86
2019-10-19 03:00:00 18.6 2 Sudoeste 14 Oeste 0 -- -- 84
2019-10-19 02:00:00 18.9 3 Oeste 8 Oeste 0 -- -- 85
2019-10-19 01:00:00 19.3 4 Oeste 10 Oeste 0 -- -- 85
2019-10-19 00:00:00 19 0 Calma 10 Oeste 0 -- -- 82
2019-10-18 23:00:00 18.1 8 Oeste 12 Oeste 0 -- -- 86
2019-10-18 22:00:00 18.4 10 Oeste 13 Oeste 0 -- -- 82
2019-10-18 21:00:00 19.8 10 Oeste 19 Oeste 0 -- -- 79
2019-10-18 20:00:00 20.9 17 Oeste 27 Oeste 0 -- -- 74
2019-10-18 19:00:00 22.8 19 Oeste 29 Oeste 0 -- -- 65
2019-10-18 18:00:00 23.8 20 Oeste 32 Oeste 0 -- -- 61
2019-10-18 17:00:00 25.1 21 Oeste 30 Oeste 0 -- -- 56
2019-10-18 16:00:00 25.6 19 Oeste 29 Oeste 0 -- -- 53
2019-10-18 15:00:00 24.8 15 Oeste 26 Noroeste 0 -- -- 56
2019-10-18 14:00:00 24.1 10 Noroeste 22 Oeste 0 -- -- 57
2019-10-18 13:00:00 22.8 11 Noroeste 24 Oeste 0 -- -- 64
2019-10-18 12:00:00 21.5 15 Noroeste 25 Noroeste 0 -- -- 70
2019-10-18 11:00:00 19.1 4 Sur 13 Noroeste 0 -- -- 81
2019-10-18 10:00:00 14.5 3 Este 5 Este 0 -- -- 93
2019-10-18 09:00:00 12.2 2 Oeste 5 Noroeste 0 -- -- 93
2019-10-18 08:00:00 12.3 0 Calma 3 Nordeste 0 -- -- 89
2019-10-18 07:00:00 12.5 0 Calma 3 Oeste 0 -- -- 88
2019-10-18 06:00:00 12.6 2 Oeste 3 Noroeste 0 -- -- 85
2019-10-18 05:00:00 12.8 0 Calma 4 Oeste 0 -- -- 83
2019-10-18 04:00:00 13.4 0 Calma 2 Noroeste 0 -- -- 88
2019-10-18 03:00:00 13.5 0 Calma 4 Nordeste 0 -- -- 82
2019-10-18 02:00:00 14.5 0 Calma 5 Noroeste 0 -- -- 87
2019-10-18 01:00:00 15.1 3 Noroeste 4 Oeste 0 -- -- 85
2019-10-18 00:00:00 15.6 2 Oeste 4 Oeste 0 -- -- 82
2019-10-17 23:00:00 16.8 3 Nordeste 14 Oeste 0 -- -- 76
2019-10-17 22:00:00 17.7 11 Oeste 21 Oeste 0 -- -- 75
2019-10-17 21:00:00 18.5 13 Oeste 30 Noroeste 0 -- -- 73
2019-10-17 20:00:00 19.2 22 Oeste 32 Noroeste 0 -- -- 70
2019-10-17 19:00:00 21 23 Oeste 32 Oeste 0 -- -- 52
2019-10-17 18:00:00 22.4 22 Oeste 32 Oeste 0 -- -- 51
2019-10-17 17:00:00 23.4 18 Oeste 30 Oeste 0 -- -- 46
2019-10-17 16:00:00 23.8 17 Oeste 30 Noroeste 0 -- -- 44
2019-10-17 15:00:00 23.4 13 Noroeste 24 Oeste 0 -- -- 44
2019-10-17 14:00:00 23.1 13 Oeste 26 Oeste 0 -- -- 46
2019-10-17 13:00:00 22.3 10 Noroeste 22 Norte 0 -- -- 47
2019-10-17 12:00:00 20 9 Noroeste 18 Noroeste 0 -- -- 57
2019-10-17 11:00:00 15.9 4 Este 7 Este 0 -- -- 63
2019-10-17 10:00:00 11.6 4 Este 6 Este 0 -- -- 73
2019-10-17 09:00:00 8.2 2 Oeste 3 Oeste 0 -- -- 80
2019-10-17 08:00:00 8.2 0 Calma 2 Noroeste 0 -- -- 80
2019-10-17 07:00:00 8.7 0 Calma 3 Noroeste 0 -- -- 82
2019-10-17 06:00:00 8.9 0 Calma 2 Este 0 -- -- 74
2019-10-17 05:00:00 9.9 2 Noroeste 3 Oeste 0 -- -- 81
2019-10-17 04:00:00 10.1 0 Calma 5 Este 0 -- -- 72
2019-10-17 03:00:00 11.3 0 Calma 4 Noroeste 0 -- -- 71
2019-10-17 02:00:00 12.2 4 Noroeste 6 Oeste 0 -- -- 72
2019-10-17 01:00:00 13.2 2 Noroeste 6 Oeste 0 -- -- 68
2019-10-17 00:00:00 14.3 0 Calma 8 Oeste 0 -- -- 61
2019-10-16 23:00:00 15.7 3 Noroeste 6 Noroeste 0 -- -- 57
2019-10-16 22:00:00 16.8 2 Noroeste 18 Noroeste 0 -- -- 55
2019-10-16 21:00:00 17.9 13 Noroeste 30 Noroeste 0 -- -- 53
2019-10-16 20:00:00 19.3 17 Oeste 26 Oeste 0 -- -- 44
2019-10-16 19:00:00 21.6 22 Oeste 28 Oeste 0 -- -- 38
2019-10-16 18:00:00 23.2 18 Oeste 29 Oeste 0 -- -- 36
2019-10-16 17:00:00 23.8 20 Oeste 32 Sudoeste 0 -- -- 36
2019-10-16 16:00:00 24.9 11 Oeste 21 Sudoeste 0 -- -- 28
2019-10-16 15:00:00 24.9 8 Este 18 Nordeste 0 -- -- 18
2019-10-16 14:00:00 23.3 7 Nordeste 14 Nordeste 0 -- -- 25
2019-10-16 13:00:00 21.9 4 Sur 12 Sudeste 0 -- -- 30
2019-10-16 12:00:00 18.9 4 Este 9 Sudeste 0 -- -- 45
2019-10-16 11:00:00 14.8 3 Este 6 Este 0 -- -- 58
2019-10-16 10:00:00 10.2 0 Calma 3 Este 0 -- -- 80
2019-10-16 09:00:00 6.8 0 Calma 5 Noroeste 0 -- -- 87
2019-10-16 08:00:00 6.8 0 Calma 4 Oeste 0 -- -- 86
2019-10-16 07:00:00 7.1 0 Calma 8 Noroeste 0 -- -- 86
2019-10-16 06:00:00 8.1 0 Calma 2 Noroeste 0 -- -- 81
2019-10-16 05:00:00 9 0 Calma 4 Oeste 0 -- -- 77
2019-10-16 04:00:00 10.7 5 Noroeste 8 Oeste 0 -- -- 79
2019-10-16 03:00:00 10.8 5 Oeste 6 Oeste 0 -- -- 78
2019-10-16 02:00:00 12 2 Este 5 Noroeste 0 -- -- 72
2019-10-16 01:00:00 13.1 2 Este 11 Noroeste 0 -- -- 65
2019-10-16 00:00:00 15.4 5 Noroeste 18 Norte 0 -- -- 63
2019-10-15 23:00:00 16.1 7 Noroeste 22 Noroeste 0 -- -- 60
2019-10-15 22:00:00 16 5 Noroeste 18 Noroeste 0 -- -- 57
2019-10-15 21:00:00 17.5 5 Noroeste 12 Noroeste 0 -- -- 38
2019-10-15 20:00:00 19.1 5 Noroeste 15 Norte 0 -- -- 35
2019-10-15 19:00:00 21.4 8 Noroeste 19 Noroeste 0 -- -- 25
2019-10-15 18:00:00 22.4 10 Noroeste 26 Noroeste 0 -- -- 25
2019-10-15 17:00:00 22.6 10 Norte 24 Norte 0 -- -- 28
2019-10-15 16:00:00 22.4 11 Noroeste 22 Noroeste 0 -- -- 27
2019-10-15 15:00:00 21.9 10 Norte 28 Noroeste 0 -- -- 30
2019-10-15 14:00:00 20.4 9 Noroeste 22 Noroeste 0 -- -- 35
2019-10-15 13:00:00 19.8 9 Norte 21 Nordeste 0 -- -- 43
2019-10-15 12:00:00 18.1 8 Norte 20 Norte 0 -- -- 54
2019-10-15 11:00:00 16.9 6 Norte 17 Nordeste 0 -- -- 63
2019-10-15 10:00:00 14.6 9 Noroeste 17 Norte 0 -- -- 66
2019-10-15 09:00:00 11.5 2 Noroeste 6 Oeste 0 -- -- 84
2019-10-15 08:00:00 11.6 0 Calma 6 Oeste 0 -- -- 79
2019-10-15 07:00:00 13.2 0 Calma 13 Norte 0 -- -- 74
2019-10-15 06:00:00 14.1 3 Norte 17 Norte 0 -- -- 74
2019-10-15 05:00:00 13.4 6 Noroeste 15 Norte 0 -- -- 75
2019-10-15 04:00:00 13.9 4 Noroeste 14 Oeste 0 -- -- 74
2019-10-15 03:00:00 14.9 9 Oeste 15 Oeste 0 -- -- 74
2019-10-15 02:00:00 15.4 8 Noroeste 14 Noroeste 0 -- -- 78
2019-10-15 01:00:00 16.5 11 Oeste 22 Oeste 0 -- -- 79
2019-10-15 00:00:00 17.4 12 Oeste 19 Noroeste 0 -- -- 78
2019-10-14 23:00:00 18.1 13 Noroeste 23 Noroeste 0 -- -- 78
2019-10-14 22:00:00 18.2 14 Oeste 28 Sudoeste 0 -- -- 79
2019-10-14 21:00:00 19 9 Oeste 25 Oeste 0 -- -- 68
2019-10-14 20:00:00 19.6 17 Oeste 31 Noroeste 0 -- -- 61
2019-10-14 19:00:00 20.1 23 Oeste 41 Oeste 0 -- -- 61
2019-10-14 18:00:00 21.3 27 Oeste 46 Oeste 0 -- -- 54
2019-10-14 17:00:00 21.6 26 Oeste 48 Oeste 0 -- -- 53
2019-10-14 16:00:00 22.1 24 Oeste 40 Oeste 0 -- -- 60
2019-10-14 15:00:00 21.6 21 Oeste 38 Sudoeste 0 -- -- 65
2019-10-14 14:00:00 22.1 22 Oeste 41 Oeste 0 -- -- 64
2019-10-14 13:00:00 21.2 20 Oeste 28 Oeste 0 -- -- 67
2019-10-14 12:00:00 21 14 Noroeste 29 Oeste 0 -- -- 68
2019-10-14 11:00:00 19.9 15 Oeste 27 Noroeste 0 -- -- 80
2019-10-14 10:00:00 19.4 9 Oeste 15 Noroeste 0 -- -- 84
2019-10-14 09:00:00 18.4 5 Oeste 28 Sudoeste 0 -- -- 89
2019-10-14 08:00:00 18.9 23 Oeste 32 Oeste 1 -- -- 85
2019-10-14 07:00:00 19.8 11 Sudoeste 24 Sudoeste 0 -- -- 81
2019-10-14 06:00:00 20.2 14 Sudoeste 27 Sudoeste 0 -- -- 84
2019-10-14 05:00:00 20.5 15 Sudoeste 32 Sudoeste 0 -- -- 82
2019-10-14 04:00:00 20.6 21 Sudoeste 37 Sur 0 -- -- 82
2019-10-14 03:00:00 18.2 5 Sudeste 7 Sudeste 0 -- -- 81
2019-10-14 02:00:00 19.1 4 Noroeste 7 Oeste 0 -- -- 80
2019-10-14 01:00:00 20.1 3 Noroeste 20 Sudeste 0 -- -- 80
2019-10-14 00:00:00 21 19 Sudeste 30 Sudeste 0 -- -- 73
2019-10-13 23:00:00 21.7 14 Sudeste 37 Este 0 -- -- 66
2019-10-13 22:00:00 21.5 24 Este 38 Este 0 -- -- 68
2019-10-13 21:00:00 21.8 19 Sudeste 40 Este 0 -- -- 67
2019-10-13 20:00:00 22.9 26 Este 43 Este 0 -- -- 63
2019-10-13 19:00:00 25.1 27 Este 40 Sudeste 0 -- -- 55
2019-10-13 18:00:00 27 31 Este 41 Este 0 -- -- 49
2019-10-13 17:00:00 28.3 31 Este 43 Este 0 -- -- 47
2019-10-13 16:00:00 28.1 27 Sudeste 45 Este 0 -- -- 48
2019-10-13 15:00:00 28.2 25 Sudeste 45 Sudeste 0 -- -- 48
2019-10-13 14:00:00 27.2 24 Este 37 Este 0 -- -- 48
2019-10-13 13:00:00 25.8 24 Este 35 Este 0 -- -- 56
2019-10-13 12:00:00 24.1 22 Este 30 Este 0 -- -- 65
2019-10-13 11:00:00 22.9 18 Este 26 Este 0 -- -- 69
2019-10-13 10:00:00 20.7 6 Este 12 Sudeste 0 -- -- 78
2019-10-13 09:00:00 19.4 0 Calma 8 Sudeste 0 -- -- 82
2019-10-13 08:00:00 19 3 Este 6 Sudeste 0 -- -- 84
2019-10-13 07:00:00 18.6 2 Oeste 3 Oeste 0 -- -- 82
2019-10-13 06:00:00 17.9 0 Calma 5 Este 0 -- -- 86
2019-10-13 05:00:00 17.6 2 Este 4 Noroeste 0 -- -- 85
2019-10-13 04:00:00 17.4 2 Noroeste 3 Noroeste 0 -- -- 88
2019-10-13 03:00:00 17.7 2 Oeste 4 Este 0 -- -- 85
2019-10-13 02:00:00 17.7 0 Calma 3 Oeste 0 -- -- 85
2019-10-13 01:00:00 18.4 0 Calma 6 Este 0 -- -- 85
2019-10-13 00:00:00 19.3 4 Este 12 Oeste 0 -- -- 85
2019-10-12 23:00:00 20.1 11 Oeste 22 Oeste 0 -- -- 84
2019-10-12 22:00:00 20.7 3 Noroeste 22 Sudoeste 0 -- -- 79
2019-10-12 21:00:00 21.2 17 Sudoeste 26 Oeste 0 -- -- 78
2019-10-12 20:00:00 23.9 13 Oeste 22 Sur 0 -- -- 66
2019-10-12 19:00:00 26.9 12 Sur 24 Sudoeste 0 -- -- 54
2019-10-12 18:00:00 28.2 14 Sur 35 Sudeste 0 -- -- 50
2019-10-12 17:00:00 28.2 24 Sudeste 39 Este 0 -- -- 47
2019-10-12 16:00:00 28 22 Sudeste 41 Este 0 -- -- 46
2019-10-12 15:00:00 28 26 Sudeste 46 Sudeste 0 -- -- 49
2019-10-12 14:00:00 27.5 35 Sudeste 48 Sudeste 0 -- -- 51
2019-10-12 13:00:00 26.8 39 Sudeste 50 Sudeste 0 -- -- 53
2019-10-12 12:00:00 25.8 37 Sudeste 51 Este 0 -- -- 57
2019-10-12 11:00:00 24.2 36 Sudeste 51 Sudeste 0 -- -- 65
2019-10-12 10:00:00 22 36 Sudeste 51 Sudeste 0 -- -- 73
2019-10-12 09:00:00 21.6 30 Sudeste 45 Este 0 -- -- 73
2019-10-12 08:00:00 21.8 27 Sudeste 41 Sudeste 0 -- -- 71
2019-10-12 07:00:00 21.5 33 Este 45 Este 0 -- -- 73
2019-10-12 06:00:00 21.4 30 Sudeste 42 Sudeste 0 -- -- 75
2019-10-12 05:00:00 21.5 32 Sudeste 44 Sudeste 0 -- -- 75
2019-10-12 04:00:00 21.5 28 Sudeste 39 Sudeste 0 -- -- 75
2019-10-12 03:00:00 21.4 26 Este 41 Este 0 -- -- 75
2019-10-12 02:00:00 21.4 27 Sudeste 45 Este 0 -- -- 76
2019-10-12 01:00:00 21.6 30 Este 41 Este 0 -- -- 75
2019-10-12 00:00:00 21.6 28 Sudeste 42 Sudeste 0 -- -- 76
2019-10-11 23:00:00 21.7 30 Este 42 Este 0 -- -- 75
2019-10-11 22:00:00 21.8 25 Sudeste 42 Sudeste 0 -- -- 74
2019-10-11 21:00:00 22 26 Sudeste 41 Sudeste 0 -- -- 72
2019-10-11 20:00:00 22.6 32 Sudeste 49 Sudeste 0 -- -- 68
2019-10-11 19:00:00 24 24 Sudeste 53 Sudeste 0 -- -- 61
2019-10-11 18:00:00 24.5 41 Este 55 Este 0 -- -- 57
2019-10-11 17:00:00 25.2 35 Sudeste 50 Este 0 -- -- 56
2019-10-11 16:00:00 25.1 36 Este 50 Este 0 -- -- 56
2019-10-11 15:00:00 26.7 37 Este 52 Este 0 -- -- 53
2019-10-11 14:00:00 26.6 42 Este 58 Este 0 -- -- 52
2019-10-11 13:00:00 24.7 39 Este 63 Este 0 -- -- 58
2019-10-11 12:00:00 24.8 38 Este 60 Este 0 -- -- 59
2019-10-11 11:00:00 23.8 39 Este 58 Sudeste 0 -- -- 63
2019-10-11 10:00:00 22.3 35 Sudeste 54 Este 0 -- -- 69
2019-10-11 09:00:00 21.5 37 Sudeste 58 Este 0 -- -- 70
2019-10-11 08:00:00 21.3 36 Sudeste 58 Este 0 -- -- 70
2019-10-11 07:00:00 21.3 38 Este 59 Este 0 -- -- 70
2019-10-11 06:00:00 21.4 44 Este 64 Este 0 -- -- 69
2019-10-11 05:00:00 21.4 45 Este 67 Este 0 -- -- 68
2019-10-11 04:00:00 21.4 40 Este 66 Este 0 -- -- 68
2019-10-11 03:00:00 21.5 47 Este 66 Este 0 -- -- 68
2019-10-11 02:00:00 21.6 44 Este 72 Este 0 -- -- 67
2019-10-11 01:00:00 21.8 46 Este 69 Sudeste 0 -- -- 65
2019-10-11 00:00:00 21.6 32 Sudeste 60 Este 0 -- -- 68
2019-10-10 23:00:00 21.5 35 Sudeste 54 Sudeste 0 -- -- 71
2019-10-10 22:00:00 21.6 29 Este 50 Sudeste 0 -- -- 71
2019-10-10 21:00:00 21.9 37 Sudeste 60 Sudeste 0 -- -- 70
2019-10-10 20:00:00 22.6 35 Sudeste 57 Sudeste 0 -- -- 64
2019-10-10 19:00:00 23.9 41 Sudeste 62 Este 0 -- -- 58
2019-10-10 18:00:00 25.9 40 Este 62 Sudeste 0 -- -- 51
2019-10-10 17:00:00 26.4 44 Este 63 Este 0 -- -- 51
2019-10-10 16:00:00 26.8 48 Este 67 Este 0 -- -- 50
2019-10-10 15:00:00 27 37 Sudeste 63 Este 0 -- -- 49
2019-10-10 14:00:00 27 40 Este 66 Este 0 -- -- 49
2019-10-10 13:00:00 26 47 Este 68 Sudeste 0 -- -- 49
2019-10-10 12:00:00 24.9 44 Este 67 Este 0 -- -- 55
2019-10-10 11:00:00 23.6 36 Sudeste 59 Sudeste 0 -- -- 60
2019-10-10 10:00:00 22.1 35 Este 62 Este 0 -- -- 66
2019-10-10 09:00:00 20.8 35 Este 54 Sudeste 0 -- -- 67
2019-10-10 08:00:00 20.4 28 Sudeste 40 Este 0 -- -- 55
2019-10-10 07:00:00 19.7 14 Este 26 Sudeste 0 -- -- 57
2019-10-10 06:00:00 20.3 22 Sudeste 28 Sudeste 0 -- -- 53
2019-10-10 05:00:00 20.1 19 Este 28 Este 0 -- -- 60
2019-10-10 04:00:00 19.6 5 Este 10 Sudeste 0 -- -- 61
2019-10-10 03:00:00 20.3 3 Este 21 Sudeste 0 -- -- 58
2019-10-10 02:00:00 19.8 6 Sudeste 11 Sur 0 -- -- 59
2019-10-10 01:00:00 19.6 3 Este 8 Este 0 -- -- 59
2019-10-10 00:00:00 19.1 2 Oeste 8 Este 0 -- -- 61
2019-10-09 23:00:00 20.3 2 Oeste 5 Oeste 0 -- -- 58
2019-10-09 22:00:00 21.2 3 Oeste 8 Oeste 0 -- -- 56
2019-10-09 21:00:00 22.8 6 Oeste 13 Oeste 0 -- -- 54
2019-10-09 20:00:00 26.3 6 Sur 15 Sudeste 0 -- -- 47
2019-10-09 19:00:00 28.7 10 Sudeste 21 Sudeste 0 -- -- 39
2019-10-09 18:00:00 30.1 13 Sudeste 26 Sudeste 0 -- -- 36
2019-10-09 17:00:00 30.8 12 Sudeste 27 Este 0 -- -- 34
2019-10-09 16:00:00 30.8 18 Este 28 Este 0 -- -- 31
2019-10-09 15:00:00 30.5 18 Este 29 Sudeste 0 -- -- 30
2019-10-09 14:00:00 29.4 13 Sudeste 28 Este 0 -- -- 32
2019-10-09 13:00:00 28.3 22 Este 35 Este 0 -- -- 32
2019-10-09 12:00:00 26.7 22 Este 31 Este 0 -- -- 33
2019-10-09 11:00:00 24.9 21 Sudeste 27 Este 0 -- -- 37
2019-10-09 10:00:00 22.9 15 Este 22 Este 0 -- -- 40
2019-10-09 09:00:00 19.5 5 Este 26 Sudeste 0 -- -- 44
2019-10-09 08:00:00 19.5 14 Este 24 Sudeste 0 -- -- 43
2019-10-09 07:00:00 19.3 14 Sudeste 21 Este 0 -- -- 45
2019-10-09 06:00:00 18.8 2 Oeste 8 Oeste 0 -- -- 50
2019-10-09 05:00:00 18.5 3 Oeste 21 Este 0 -- -- 54
2019-10-09 04:00:00 20 12 Este 20 Sudeste 0 -- -- 53
2019-10-09 03:00:00 20.9 19 Sudeste 31 Este 0 -- -- 53
2019-10-09 02:00:00 21.3 26 Este 39 Este 0 -- -- 55
2019-10-09 01:00:00 21.6 22 Sudeste 36 Sudeste 0 -- -- 53
2019-10-09 00:00:00 21.8 28 Sudeste 40 Sudeste 0 -- -- 53
2019-10-08 23:00:00 22 28 Este 46 Este 0 -- -- 58
2019-10-08 22:00:00 22.4 37 Este 50 Este 0 -- -- 57
2019-10-08 21:00:00 22.7 31 Sudeste 44 Este 0 -- -- 56
2019-10-08 20:00:00 23.7 29 Sudeste 49 Este 0 -- -- 54
2019-10-08 19:00:00 25.7 40 Sudeste 53 Este 0 -- -- 42
2019-10-08 18:00:00 27.2 41 Este 60 Sudeste 0 -- -- 40
2019-10-08 17:00:00 27.8 45 Este 66 Este 0 -- -- 39
2019-10-08 16:00:00 28.2 46 Este 69 Este 0 -- -- 36
2019-10-08 15:00:00 27.9 45 Este 63 Este 0 -- -- 47
2019-10-08 14:00:00 27.4 49 Este 68 Este 0 -- -- 46
2019-10-08 13:00:00 26.6 47 Sudeste 62 Sudeste 0 -- -- 53
2019-10-08 12:00:00 25.6 46 Sudeste 63 Sudeste 0 -- -- 56
2019-10-08 11:00:00 24.7 42 Este 60 Este 0 -- -- 58
2019-10-08 10:00:00 23.1 32 Sudeste 48 Sudeste 0 -- -- 64
2019-10-08 09:00:00 21.5 26 Este 38 Este 0 -- -- 66
2019-10-08 08:00:00 21.1 18 Sudeste 27 Sudeste 0 -- -- 61
2019-10-08 07:00:00 20.9 16 Sudeste 32 Sudeste 0 -- -- 65
2019-10-08 06:00:00 20.4 12 Sudeste 23 Sudeste 0 -- -- 63
2019-10-08 05:00:00 18.2 8 Sudeste 15 Sudeste 0 -- -- 71
2019-10-08 04:00:00 15.7 7 Este 9 Nordeste 0 -- -- 62
2019-10-08 03:00:00 17 4 Este 6 Oeste 0 -- -- 59
2019-10-08 02:00:00 17.6 4 Oeste 6 Noroeste 0 -- -- 58
2019-10-08 01:00:00 18.2 4 Noroeste 7 Noroeste 0 -- -- 56
2019-10-08 00:00:00 19.4 2 Norte 5 Oeste 0 -- -- 51
2019-10-07 23:00:00 20.6 2 Noroeste 9 Oeste 0 -- -- 50
2019-10-07 22:00:00 21.5 2 Noroeste 5 Oeste 0 -- -- 49
2019-10-07 21:00:00 23.4 7 Oeste 12 Noroeste 0 -- -- 48
2019-10-07 20:00:00 25.7 4 Sudoeste 29 Oeste 0 -- -- 45
2019-10-07 19:00:00 28.4 22 Oeste 33 Oeste 0 -- -- 39
2019-10-07 18:00:00 30 24 Oeste 31 Noroeste 0 -- -- 37
2019-10-07 17:00:00 31.6 18 Noroeste 25 Noroeste 0 -- -- 34
2019-10-07 16:00:00 31 14 Oeste 26 Oeste 0 -- -- 36
2019-10-07 15:00:00 30.9 12 Oeste 21 Noroeste 0 -- -- 36
2019-10-07 14:00:00 29.9 5 Noroeste 12 Noroeste 0 -- -- 35
2019-10-07 13:00:00 27 4 Este 13 Este 0 -- -- 49
2019-10-07 12:00:00 23.9 4 Sudeste 10 Sudeste 0 -- -- 57
2019-10-07 11:00:00 19.7 5 Sudeste 7 Este 0 -- -- 67
2019-10-07 10:00:00 15.6 4 Este 8 Este 0 -- -- 72
2019-10-07 09:00:00 12.2 0 Calma 5 Este 0 -- -- 78
2019-10-07 08:00:00 12.1 0 Calma 4 Este 0 -- -- 82
2019-10-07 07:00:00 12.5 0 Calma 3 Oeste 0 -- -- 78
2019-10-07 06:00:00 13 0 Calma 5 Noroeste 0 -- -- 78
2019-10-07 05:00:00 13.5 0 Calma 4 Este 0 -- -- 72
2019-10-07 04:00:00 14.2 0 Calma 5 Noroeste 0 -- -- 74
2019-10-07 03:00:00 14.8 3 Noroeste 6 Sudoeste 0 -- -- 72
2019-10-07 02:00:00 15.6 2 Noroeste 8 Oeste 0 -- -- 68
2019-10-07 01:00:00 17.2 4 Noroeste 5 Noroeste 0 -- -- 68
2019-10-07 00:00:00 18.7 2 Sudoeste 14 Noroeste 0 -- -- 70
2019-10-06 23:00:00 18.4 8 Noroeste 13 Noroeste 0 -- -- 67
2019-10-06 22:00:00 19.5 2 Oeste 12 Noroeste 0 -- -- 58
2019-10-06 21:00:00 21.4 4 Noroeste 11 Sudoeste 0 -- -- 54
2019-10-06 20:00:00 23 8 Oeste 34 Oeste 0 -- -- 49
2019-10-06 19:00:00 25.5 25 Oeste 36 Oeste 0 -- -- 45
2019-10-06 18:00:00 27.7 22 Oeste 31 Oeste 0 -- -- 43
2019-10-06 17:00:00 29.1 19 Oeste 31 Oeste 0 -- -- 41
2019-10-06 16:00:00 29.4 12 Oeste 27 Oeste 0 -- -- 36
2019-10-06 15:00:00 28.5 7 Noroeste 17 Oeste 0 -- -- 39
2019-10-06 14:00:00 27 7 Oeste 19 Oeste 0 -- -- 47
2019-10-06 13:00:00 25.1 9 Oeste 18 Oeste 0 -- -- 55
2019-10-06 12:00:00 23.3 5 Sur 16 Sudeste 0 -- -- 66
2019-10-06 11:00:00 19.7 9 Sudeste 14 Sudeste 0 -- -- 79
2019-10-06 10:00:00 16.3 0 Calma 3 Sudeste 0 -- -- 95
2019-10-06 09:00:00 15.3 0 Calma 8 Sudeste 0 -- -- 93
2019-10-06 08:00:00 15.1 3 Sudeste 4 Sudeste 0 -- -- 95
2019-10-06 07:00:00 14.4 0 Calma 7 Sudeste 0 -- -- 94
2019-10-06 06:00:00 14.1 4 Este 8 Sudeste 0 -- -- 93
2019-10-06 05:00:00 13.5 3 Este 7 Este 0 -- -- 89
2019-10-06 04:00:00 13.9 0 Calma 4 Nordeste 0 -- -- 88
2019-10-06 03:00:00 14.5 2 Noroeste 4 Oeste 0 -- -- 87
2019-10-06 02:00:00 15.3 3 Oeste 6 Noroeste 0 -- -- 85
2019-10-06 01:00:00 16.1 0 Calma 5 Oeste 0 -- -- 79
2019-10-06 00:00:00 16.7 2 Oeste 4 Noroeste 0 -- -- 81
2019-10-05 23:00:00 18.7 2 Noroeste 11 Norte 0 -- -- 72
2019-10-05 22:00:00 19.2 6 Nordeste 21 Oeste 0 -- -- 71
2019-10-05 21:00:00 20.6 13 Oeste 32 Oeste 0 -- -- 62
2019-10-05 20:00:00 22.4 24 Oeste 33 Oeste 0 -- -- 54
2019-10-05 19:00:00 23.9 21 Oeste 35 Oeste 0 -- -- 53
2019-10-05 18:00:00 25.9 26 Oeste 36 Oeste 0 -- -- 50
2019-10-05 17:00:00 26.5 21 Oeste 29 Oeste 0 -- -- 49
2019-10-05 16:00:00 25 20 Oeste 30 Noroeste 0 -- -- 56
2019-10-05 15:00:00 26.3 18 Oeste 30 Oeste 0 -- -- 49
2019-10-05 14:00:00 26.2 16 Oeste 26 Oeste 0 -- -- 50
2019-10-05 13:00:00 24.8 8 Oeste 17 Oeste 0 -- -- 61
2019-10-05 12:00:00 22.5 5 Sudeste 11 Sudeste 0 -- -- 74
2019-10-05 11:00:00 19.1 2 Nordeste 5 Sur 0 -- -- 90
2019-10-05 10:00:00 17.4 0 Calma 3 Este 0 -- -- 94
2019-10-05 09:00:00 16.5 0 Calma 2 Sudoeste 0 -- -- 94
2019-10-05 08:00:00 15.9 2 Este 4 Este 0 -- -- 95
2019-10-05 07:00:00 14.8 0 Calma 2 Nordeste 0 -- -- 94
2019-10-05 06:00:00 14.3 0 Calma 2 Oeste 0 -- -- 93
2019-10-05 05:00:00 15 0 Calma 3 Oeste 0 -- -- 90
2019-10-05 04:00:00 15.2 3 Oeste 4 Oeste 0 -- -- 84
2019-10-05 03:00:00 16 2 Noroeste 4 Noroeste 0 -- -- 87
2019-10-05 02:00:00 16.7 2 Oeste 5 Oeste 0 -- -- 90
2019-10-05 01:00:00 17.8 3 Oeste 6 Norte 0 -- -- 82
2019-10-05 00:00:00 19.2 3 Noroeste 8 Norte 0 -- -- 85
2019-10-04 23:00:00 19.8 4 Nordeste 21 Oeste 0 -- -- 83
2019-10-04 22:00:00 20.7 12 Oeste 23 Oeste 0 -- -- 75
2019-10-04 21:00:00 21.7 14 Oeste 23 Oeste 0 -- -- 67
2019-10-04 20:00:00 23.3 15 Oeste 27 Noroeste 0 -- -- 60
2019-10-04 19:00:00 26 19 Oeste 27 Oeste 0 -- -- 50
2019-10-04 18:00:00 27.7 16 Noroeste 27 Noroeste 0 -- -- 38
2019-10-04 17:00:00 28.7 17 Oeste 32 Noroeste 0 -- -- 36
2019-10-04 16:00:00 28.5 14 Oeste 26 Oeste 0 -- -- 43
2019-10-04 15:00:00 27.8 16 Sudoeste 26 Oeste 0 -- -- 47
2019-10-04 14:00:00 27.6 6 Sudoeste 19 Sudeste 0 -- -- 48
2019-10-04 13:00:00 25.2 7 Sudeste 17 Sudeste 0 -- -- 54
2019-10-04 12:00:00 22.8 5 Sudeste 14 Sudeste 0 -- -- 67
2019-10-04 11:00:00 18.7 4 Sudeste 8 Este 0 -- -- 80
2019-10-04 10:00:00 16.2 0 Calma 5 Oeste 0 -- -- 88
2019-10-04 09:00:00 14.9 0 Calma 4 Este 0 -- -- 88
2019-10-04 08:00:00 13.8 2 Este 2 Este 0 -- -- 84
2019-10-04 07:00:00 12.2 0 Calma 5 Este 0 -- -- 84
2019-10-04 06:00:00 12.5 3 Noroeste 4 Noroeste 0 -- -- 86
2019-10-04 05:00:00 12.9 0 Calma 3 Nordeste 0 -- -- 83
2019-10-04 04:00:00 13.4 0 Calma 4 Noroeste 0 -- -- 86
2019-10-04 03:00:00 13.8 0 Calma 3 Sudoeste 0 -- -- 81
2019-10-04 02:00:00 14.4 2 Noroeste 4 Noroeste 0 -- -- 85
2019-10-04 01:00:00 15.1 3 Noroeste 4 Noroeste 0 -- -- 81
2019-10-04 00:00:00 16 0 Calma 5 Noroeste 0 -- -- 78
2019-10-03 23:00:00 16.8 0 Calma 5 Noroeste 0 -- -- 78
2019-10-03 22:00:00 17.8 2 Oeste 8 Noroeste 0 -- -- 75
2019-10-03 21:00:00 19.6 3 Oeste 19 Oeste 0 -- -- 71
2019-10-03 20:00:00 21.3 13 Oeste 28 Noroeste 0 -- -- 59
2019-10-03 19:00:00 23.5 19 Oeste 35 Noroeste 0 -- -- 47
2019-10-03 18:00:00 25 18 Oeste 33 Noroeste 0 -- -- 39
2019-10-03 17:00:00 25.4 20 Oeste 30 Oeste 0 -- -- 38
2019-10-03 16:00:00 26.3 21 Oeste 32 Oeste 0 -- -- 40
2019-10-03 15:00:00 26.7 19 Oeste 27 Oeste 0 -- -- 37
2019-10-03 14:00:00 25.9 13 Oeste 25 Sudoeste 0 -- -- 43
2019-10-03 13:00:00 24.5 11 Oeste 19 Sudoeste 0 -- -- 50
2019-10-03 12:00:00 23.1 8 Sur 21 Sur 0 -- -- 59
2019-10-03 11:00:00 20.7 8 Sudoeste 14 Sudoeste 0 -- -- 70
2019-10-03 10:00:00 17.4 0 Calma 3 Sudoeste 0 -- -- 85
2019-10-03 09:00:00 15.4 0 Calma 5 Este 0 -- -- 82
2019-10-03 08:00:00 15.4 3 Sudeste 4 Sudeste 0 -- -- 87
2019-10-03 07:00:00 13.8 2 Oeste 3 Este 0 -- -- 86
2019-10-03 06:00:00 13.3 2 Este 3 Noroeste 0 -- -- 88
2019-10-03 05:00:00 13.5 0 Calma 3 Oeste 0 -- -- 86
2019-10-03 04:00:00 14 2 Oeste -- -- 0 -- -- 88
2019-10-03 03:00:00 14.4 0 Calma 5 Este 0 -- -- 83
2019-10-03 02:00:00 14.3 3 Sudeste 5 Sur 0 -- -- 84
2019-10-03 01:00:00 14.8 0 Calma 8 Sudeste 0 -- -- 80
2019-10-03 00:00:00 15.6 2 Este 3 Sudeste 0 -- -- 80
2019-10-02 23:00:00 16.5 0 Calma 5 Sudoeste 0 -- -- 75
2019-10-02 22:00:00 18 3 Sur 6 Sudoeste 0 -- -- 75
2019-10-02 21:00:00 18.8 2 Sudoeste 14 Oeste 0 -- -- 69
2019-10-02 20:00:00 20 11 Oeste 23 Oeste 0 -- -- 63
2019-10-02 19:00:00 21.7 16 Oeste 29 Oeste 0 -- -- 55
2019-10-02 18:00:00 23.6 18 Oeste 30 Oeste 0 -- -- 43
2019-10-02 17:00:00 23.9 19 Oeste 34 Oeste 0 -- -- 44
2019-10-02 16:00:00 23.5 21 Oeste 35 Oeste 0 -- -- 48
2019-10-02 15:00:00 23.1 20 Oeste 35 Oeste 0 -- -- 50
2019-10-02 14:00:00 22.8 17 Oeste 30 Oeste 0 -- -- 52
2019-10-02 13:00:00 22.5 18 Noroeste 30 Oeste 0 -- -- 55
2019-10-02 12:00:00 21.6 15 Noroeste 26 Oeste 0 -- -- 64
2019-10-02 11:00:00 20.1 20 Oeste 30 Noroeste 0 -- -- 69
2019-10-02 10:00:00 18.5 17 Oeste 25 Oeste 0 -- -- 72
2019-10-02 09:00:00 16.7 5 Oeste 13 Noroeste 0 -- -- 81
2019-10-02 08:00:00 17 8 Noroeste 23 Noroeste 0 -- -- 81
2019-10-02 07:00:00 17.4 15 Oeste 23 Oeste 0 -- -- 78
2019-10-02 06:00:00 17.5 2 Norte 17 Noroeste 0 -- -- 73
2019-10-02 05:00:00 17.7 4 Noroeste 15 Noroeste 0 -- -- 74
2019-10-02 04:00:00 18.6 4 Noroeste 15 Noroeste 0 -- -- 73
2019-10-02 03:00:00 19.1 5 Noroeste 15 Noroeste 0 -- -- 75
2019-10-02 02:00:00 18 2 Noroeste 14 Oeste 0 -- -- 81
2019-10-02 01:00:00 18.2 4 Nordeste 8 Este 0 -- -- 79
2019-10-02 00:00:00 19.1 0 Calma 8 Este 0 -- -- 76
2019-10-01 23:00:00 20.5 3 Sudoeste 31 Oeste 0 -- -- 72
2019-10-01 22:00:00 21.9 26 Oeste 41 Oeste 0 -- -- 71
2019-10-01 21:00:00 22 32 Oeste 45 Oeste 0 -- -- 65
2019-10-01 20:00:00 22.4 31 Oeste 39 Oeste 0 -- -- 66
2019-10-01 19:00:00 25 29 Oeste 39 Oeste 0 -- -- 55
2019-10-01 18:00:00 26.3 28 Oeste 42 Noroeste 0 -- -- 48
2019-10-01 17:00:00 26.7 32 Oeste 41 Oeste 0 -- -- 44
2019-10-01 16:00:00 26.9 29 Oeste 39 Oeste 0 -- -- 46
2019-10-01 15:00:00 27.4 26 Noroeste 37 Oeste 0 -- -- 44
2019-10-01 14:00:00 27.3 26 Noroeste 39 Noroeste 0 -- -- 41
2019-10-01 13:00:00 26.7 19 Noroeste 29 Oeste 0 -- -- 45
2019-10-01 12:00:00 24.5 14 Noroeste 25 Noroeste 0 -- -- 53
2019-10-01 11:00:00 22.4 8 Noroeste 14 Noroeste 0 -- -- 58
2019-10-01 10:00:00 17.6 3 Este 5 Este 0 -- -- 54
2019-10-01 09:00:00 14.4 0 Calma 6 Este 0 -- -- 57
2019-10-01 08:00:00 14.5 0 Calma 5 Noroeste 0 -- -- 57
2019-10-01 07:00:00 14.8 0 Calma 7 Este 0 -- -- 54
2019-10-01 06:00:00 15 0 Calma 5 Oeste 0 -- -- 52
2019-10-01 05:00:00 17 0 Calma 9 Oeste 0 -- -- 44
2019-10-01 04:00:00 18.5 4 Oeste 8 Noroeste 0 -- -- 42
2019-10-01 03:00:00 18.2 5 Oeste 8 Noroeste 0 -- -- 46
2019-10-01 02:00:00 18.4 4 Oeste 7 Noroeste 0 -- -- 50
2019-10-01 01:00:00 20.4 2 Oeste 14 Noroeste 0 -- -- 44
2019-10-01 00:00:00 21.9 10 Noroeste 15 Oeste 0 -- -- 42
2019-09-30 23:00:00 21.6 2 Oeste 5 Este 0 -- -- 42
2019-09-30 22:00:00 23.5 5 Noroeste 16 Oeste 0 -- -- 39
2019-09-30 21:00:00 24.7 5 Sudoeste 28 Oeste 0 -- -- 36
2019-09-30 20:00:00 27 20 Oeste 27 Noroeste 0 -- -- 39
2019-09-30 19:00:00 30.4 15 Oeste 25 Oeste 0 -- -- 29
2019-09-30 18:00:00 32.3 14 Oeste 24 Oeste 0 -- -- 28
2019-09-30 17:00:00 31.3 16 Noroeste 27 Oeste 0 -- -- 31
2019-09-30 16:00:00 33.5 9 Oeste 30 Noroeste 0 -- -- 29
2019-09-30 15:00:00 32.9 10 Este 24 Nordeste 0 -- -- 27
2019-09-30 14:00:00 31 5 Sudeste 12 Este 0 -- -- 29
2019-09-30 13:00:00 28.2 5 Este 10 Este 0 -- -- 34
2019-09-30 12:00:00 23.1 5 Sudeste 8 Este 0 -- -- 59
2019-09-30 11:00:00 17.8 0 Calma 5 Este 0 -- -- 94
2019-09-30 10:00:00 16.2 0 Calma 4 Sudoeste 0.2 -- -- 94
2019-09-30 09:00:00 15.7 0 Calma 3 Oeste 0 -- -- 95
2019-09-30 08:00:00 15.3 0 Calma 4 Sudoeste 0 -- -- 94
2019-09-30 07:00:00 15.8 2 Sur 5 Sur 0 -- -- 93
2019-09-30 06:00:00 16.1 2 Sudeste 4 Sur 0 -- -- 94
2019-09-30 05:00:00 15.8 0 Calma 5 Este 0 -- -- 94
2019-09-30 04:00:00 15.2 4 Este 7 Este 0 -- -- 92
2019-09-30 03:00:00 15.9 0 Calma 2 Oeste 0 -- -- 88
2019-09-30 02:00:00 16 3 Noroeste 5 Oeste 0 -- -- 83
2019-09-30 01:00:00 16.9 3 Noroeste 4 Noroeste 0 -- -- 81
2019-09-30 00:00:00 17.7 2 Oeste 5 Oeste 0 -- -- 81
2019-09-29 23:00:00 19.2 2 Este 6 Sur 0 -- -- 78
2019-09-29 22:00:00 20.5 3 Sudeste 8 Sudoeste 0 -- -- 74
2019-09-29 21:00:00 21.6 4 Sudoeste 14 Oeste 0 -- -- 73
2019-09-29 20:00:00 24.2 8 Oeste 22 Oeste 0 -- -- 61
2019-09-29 19:00:00 27.9 13 Sudoeste 22 Sur 0 -- -- 46
2019-09-29 18:00:00 29.9 14 Sur 24 Sur 0 -- -- 42
2019-09-29 17:00:00 31.3 13 Sur 21 Sudeste 0 -- -- 37
2019-09-29 16:00:00 31.3 11 Sur 22 Sudoeste 0 -- -- 38
2019-09-29 15:00:00 31.1 12 Sur 23 Sur 0 -- -- 40
2019-09-29 14:00:00 29.9 9 Sudeste 23 Sudeste 0 -- -- 41
2019-09-29 13:00:00 28.5 12 Sudeste 22 Este 0 -- -- 42
2019-09-29 12:00:00 26.6 14 Este 22 Este 0 -- -- 50
2019-09-29 11:00:00 24.7 17 Sudeste 26 Sudeste 0 -- -- 55
2019-09-29 10:00:00 22.1 8 Este 18 Este 0 -- -- 67
2019-09-29 09:00:00 18.9 0 Calma 6 Sudoeste 0 -- -- 77
2019-09-29 08:00:00 18.1 2 Oeste 17 Este 0 -- -- 77
2019-09-29 07:00:00 19.3 9 Este 18 Sudeste 0 -- -- 76
2019-09-29 06:00:00 19.5 12 Este 24 Este 0 -- -- 74
2019-09-29 05:00:00 19.6 13 Este 23 Este 0 -- -- 73
2019-09-29 04:00:00 19.7 14 Este 24 Este 0 -- -- 75
2019-09-29 03:00:00 20.1 12 Este 20 Este 0 -- -- 73
2019-09-29 02:00:00 20.5 6 Este 13 Este 0 -- -- 67
2019-09-29 01:00:00 21 10 Este 17 Este 0 -- -- 60
2019-09-29 00:00:00 21.3 4 Sudeste 14 Este 0 -- -- 58
2019-09-28 23:00:00 21.9 6 Este 11 Este 0 -- -- 56
2019-09-28 22:00:00 22.6 2 Oeste 8 Oeste 0 -- -- 50
2019-09-28 21:00:00 24.8 7 Oeste 16 Oeste 0 -- -- 44
2019-09-28 20:00:00 27.6 12 Oeste 20 Oeste 0 -- -- 37
2019-09-28 19:00:00 30.3 13 Oeste 27 Oeste 0 -- -- 35
2019-09-28 18:00:00 31.3 18 Oeste 26 Oeste 0 -- -- 35
2019-09-28 17:00:00 32.5 17 Oeste 29 Oeste 0 -- -- 32
2019-09-28 16:00:00 33 18 Oeste 27 Oeste 0 -- -- 35
2019-09-28 15:00:00 33.9 10 Este 19 Sudeste 0 -- -- 18
2019-09-28 14:00:00 32.7 9 Este 18 Nordeste 0 -- -- 22
2019-09-28 13:00:00 30.7 6 Este 14 Este 0 -- -- 30
2019-09-28 12:00:00 27.6 5 Sudeste 10 Este 0 -- -- 36
2019-09-28 11:00:00 22.8 5 Este 10 Este 0 -- -- 53
2019-09-28 10:00:00 17.9 3 Este 6 Este 0 -- -- 69
2019-09-28 09:00:00 13.5 0 Calma 4 Sudoeste 0 -- -- 76
2019-09-28 08:00:00 13.1 3 Este 5 Este 0 -- -- 81
2019-09-28 07:00:00 13.7 0 Calma 5 Sudeste 0 -- -- 75
2019-09-28 06:00:00 14 0 Calma 3 Oeste 0 -- -- 77
2019-09-28 05:00:00 14.4 0 Calma 4 Noroeste 0 -- -- 72
2019-09-28 04:00:00 14.9 0 Calma 4 Noroeste 0 -- -- 70
2019-09-28 03:00:00 15.9 3 Noroeste 6 Oeste 0 -- -- 72
2019-09-28 02:00:00 16.6 2 Nordeste 6 Oeste 0 -- -- 70
2019-09-28 01:00:00 17.4 3 Oeste 9 Oeste 0 -- -- 68
2019-09-28 00:00:00 18.4 6 Oeste 8 Oeste 0 -- -- 66
2019-09-27 23:00:00 19.6 3 Noroeste 5 Oeste 0 -- -- 56
2019-09-27 22:00:00 21.4 0 Calma 13 Oeste 0 -- -- 57
2019-09-27 21:00:00 22.8 7 Sur 24 Oeste 0 -- -- 54
2019-09-27 20:00:00 25.2 18 Oeste 26 Oeste 0 -- -- 47
2019-09-27 19:00:00 28 18 Oeste 23 Oeste 0 -- -- 47
2019-09-27 18:00:00 28.8 15 Noroeste 26 Oeste 0 -- -- 43
2019-09-27 17:00:00 29.6 16 Noroeste 26 Oeste 0 -- -- 43
2019-09-27 16:00:00 29.8 19 Noroeste 29 Oeste 0 -- -- 43
2019-09-27 15:00:00 29.8 10 Sudoeste 24 Noroeste 0 -- -- 45
2019-09-27 14:00:00 29.5 17 Noroeste 27 Noroeste 0 -- -- 46
2019-09-27 13:00:00 29.2 5 Sur 17 Sudeste 0 -- -- 36
2019-09-27 12:00:00 27 6 Sudeste 15 Este 0 -- -- 48
2019-09-27 11:00:00 23.7 9 Sudeste 13 Sudeste 0 -- -- 63
2019-09-27 10:00:00 20.3 4 Sudeste 5 Este 0 -- -- 78
2019-09-27 09:00:00 16.5 0 Calma 4 Oeste 0 -- -- 88
2019-09-27 08:00:00 15.9 3 Oeste 5 Noroeste 0 -- -- 89
2019-09-27 07:00:00 15.8 3 Oeste 6 Oeste 0 -- -- 86
2019-09-27 06:00:00 16.1 3 Oeste 6 Oeste 0 -- -- 82
2019-09-27 05:00:00 16.4 3 Oeste 6 Oeste 0 -- -- 76
2019-09-27 04:00:00 16.9 4 Noroeste 6 Oeste 0 -- -- 70
2019-09-27 03:00:00 17.3 5 Noroeste 6 Oeste 0 -- -- 62
2019-09-27 02:00:00 17.9 5 Noroeste 6 Noroeste 0 -- -- 59
2019-09-27 01:00:00 18.8 3 Noroeste 6 Noroeste 0 -- -- 56
2019-09-27 00:00:00 19.4 6 Oeste 10 Oeste 0 -- -- 55
2019-09-26 23:00:00 20.3 4 Oeste 7 Oeste 0 -- -- 51
2019-09-26 22:00:00 22.3 5 Oeste 14 Oeste 0 -- -- 47
2019-09-26 21:00:00 23.8 7 Oeste 20 Oeste 0 -- -- 45
2019-09-26 20:00:00 26.6 14 Oeste 22 Oeste 0 -- -- 39
2019-09-26 19:00:00 28.8 15 Noroeste 24 Oeste 0 -- -- 34
2019-09-26 18:00:00 29.8 16 Noroeste 28 Oeste 0 -- -- 38
2019-09-26 17:00:00 30.5 16 Oeste 26 Sudoeste 0 -- -- 39
2019-09-26 16:00:00 31.1 15 Oeste 32 Oeste 0 -- -- 40
2019-09-26 15:00:00 31.5 5 Este 17 Sur 0 -- -- 32
2019-09-26 14:00:00 30.2 10 Este 16 Este 0 -- -- 37
2019-09-26 13:00:00 28.1 9 Sudeste 22 Sudeste 0 -- -- 45
2019-09-26 12:00:00 25.3 7 Sur 17 Sudeste 0 -- -- 57
2019-09-26 11:00:00 21.5 6 Sudeste 12 Sudeste 0 -- -- 66
2019-09-26 10:00:00 17.5 4 Este 6 Nordeste 0 -- -- 74
2019-09-26 09:00:00 13.3 3 Noroeste 5 Oeste 0 -- -- 90
2019-09-26 08:00:00 12.9 0 Calma 3 Nordeste 0 -- -- 83
2019-09-26 07:00:00 13.8 0 Calma 7 Noroeste 0 -- -- 82
2019-09-26 06:00:00 13.5 2 Sudoeste 5 Noroeste 0 -- -- 87
2019-09-26 05:00:00 14.2 2 Oeste 3 Oeste 0 -- -- 85
2019-09-26 04:00:00 15.2 3 Este 8 Nordeste 0 -- -- 78
2019-09-26 03:00:00 15.2 2 Nordeste 3 Nordeste 0 -- -- 77
2019-09-26 02:00:00 16.3 2 Noroeste 4 Oeste 0 -- -- 73
2019-09-26 01:00:00 17.6 4 Oeste 6 Noroeste 0 -- -- 76
2019-09-26 00:00:00 19.4 4 Norte 9 Norte 0 -- -- 72
2019-09-25 23:00:00 19.7 3 Norte 20 Oeste 0 -- -- 71
2019-09-25 22:00:00 20.9 12 Noroeste 25 Oeste 0 -- -- 66
2019-09-25 21:00:00 21.9 11 Oeste 32 Oeste 0 -- -- 56
2019-09-25 20:00:00 23.8 23 Oeste 33 Oeste 0 -- -- 52
2019-09-25 19:00:00 26 25 Oeste 35 Oeste 0 -- -- 38
2019-09-25 18:00:00 27.3 23 Oeste 33 Oeste 0 -- -- 33
2019-09-25 17:00:00 28 22 Oeste 33 Oeste 0 -- -- 41
2019-09-25 16:00:00 28.5 21 Oeste 31 Noroeste 0 -- -- 41
2019-09-25 15:00:00 28.8 14 Noroeste 29 Oeste 0 -- -- 39
2019-09-25 14:00:00 28.4 11 Noroeste -- -- -- -- -- 37
2019-09-25 13:00:00 -- -- -- -- -- -- -- -- --
2019-09-25 12:00:00 25.6 9 Noroeste 22 Noroeste 0 -- -- 58
2019-09-25 11:00:00 23.9 6 Norte 23 Noroeste 0 -- -- 62
2019-09-25 10:00:00 21.5 7 Noroeste 18 Oeste 0 -- -- 76
2019-09-25 09:00:00 19.5 7 Noroeste 19 Oeste 0 -- -- 86
2019-09-25 08:00:00 19.3 4 Noroeste 13 Noroeste 0 -- -- 87
2019-09-25 07:00:00 19.6 6 Noroeste 11 Oeste 0 -- -- 84
2019-09-25 06:00:00 20 3 Noroeste 10 Oeste 0 -- -- 82
2019-09-25 05:00:00 20.6 5 Noroeste 15 Noroeste 0 -- -- 80
2019-09-25 04:00:00 18.3 3 Oeste 8 Oeste 0 -- -- 80
2019-09-25 03:00:00 18.5 3 Noroeste 8 Noroeste 0 -- -- 78
2019-09-25 02:00:00 17.9 3 Oeste 3 Oeste 0 -- -- 78
2019-09-25 01:00:00 18.7 3 Oeste 6 Oeste 0 -- -- 79
2019-09-25 00:00:00 19.8 3 Oeste 8 Norte 0 -- -- 75
2019-09-24 23:00:00 21.2 4 Norte 18 Oeste 0 -- -- 71
2019-09-24 22:00:00 22.3 15 Noroeste 31 Oeste 0 -- -- 71
2019-09-24 21:00:00 23.8 19 Oeste 31 Oeste 0 -- -- 53
2019-09-24 20:00:00 25.4 28 Oeste 40 Noroeste 0 -- -- 45
2019-09-24 19:00:00 27.8 29 Oeste 36 Oeste 0 -- -- 42
2019-09-24 18:00:00 29.9 25 Oeste 37 Noroeste 0 -- -- 38
2019-09-24 17:00:00 30.4 24 Oeste 36 Oeste 0 -- -- 36
2019-09-24 16:00:00 30.4 26 Oeste 35 Oeste 0 -- -- 39
2019-09-24 15:00:00 31.7 13 Sudoeste 27 Oeste 0 -- -- 36
2019-09-24 14:00:00 30.8 8 Oeste 19 Noroeste 0 -- -- 31
2019-09-24 13:00:00 29.8 5 Noroeste 14 Oeste 0 -- -- 33
2019-09-24 12:00:00 27.8 4 Norte 11 Norte 0 -- -- 37
2019-09-24 11:00:00 23.2 5 Este 9 Este 0 -- -- 51
2019-09-24 10:00:00 17.7 0 Calma 3 Este 0 -- -- 77
2019-09-24 09:00:00 14 2 Este 3 Este 0 -- -- 87
2019-09-24 08:00:00 13.1 0 Calma 5 Oeste 0 -- -- 87
2019-09-24 07:00:00 13.5 0 Calma 6 Noroeste 0 -- -- 87
2019-09-24 06:00:00 14.9 4 Oeste 9 Noroeste 0 -- -- 84
2019-09-24 05:00:00 15 5 Oeste 8 Noroeste 0 -- -- 85
2019-09-24 04:00:00 15.3 3 Oeste 5 Noroeste 0 -- -- 82
2019-09-24 03:00:00 15.9 4 Oeste 5 Oeste 0 -- -- 79
2019-09-24 02:00:00 17.5 5 Noroeste 8 Noroeste 0 -- -- 76
2019-09-24 01:00:00 18.5 7 Oeste 9 Oeste 0 -- -- 70
2019-09-24 00:00:00 18.9 3 Sudoeste 12 Oeste 0 -- -- 67
2019-09-23 23:00:00 20.1 0 Calma 11 Noroeste 0 -- -- 66
2019-09-23 22:00:00 21.4 4 Noroeste 23 Noroeste 0 -- -- 67
2019-09-23 21:00:00 22.5 17 Noroeste 33 Oeste 0 -- -- 64
2019-09-23 20:00:00 24.3 27 Oeste 34 Oeste 0 -- -- 57
2019-09-23 19:00:00 27.9 23 Oeste 34 Oeste 0 -- -- 47
2019-09-23 18:00:00 30.1 20 Oeste 28 Oeste 0 -- -- 40
2019-09-23 17:00:00 31.3 12 Norte 34 Oeste 0 -- -- 29
2019-09-23 16:00:00 30.8 9 Noroeste 24 Noroeste 0 -- -- 31
2019-09-23 15:00:00 29.2 13 Noroeste 25 Noroeste 0 -- -- 35
2019-09-23 14:00:00 28.2 10 Norte 23 Nordeste 0 -- -- 40
2019-09-23 13:00:00 26.3 9 Norte 26 Noroeste 0 -- -- 48
2019-09-23 12:00:00 23.8 9 Norte 18 Norte 0 -- -- 61
2019-09-23 11:00:00 20 6 Noroeste 11 Norte 0 -- -- 87
2019-09-23 10:00:00 17.2 3 Sudeste 7 Este 0 -- -- 100
2019-09-23 09:00:00 13.9 3 Este 7 Oeste 0 -- -- 100
2019-09-23 08:00:00 13.1 5 Oeste 7 Oeste 0 -- -- 99
2019-09-23 07:00:00 13.1 4 Oeste 5 Sudeste 0 -- -- 98
2019-09-23 06:00:00 13.9 0 Calma 5 Noroeste 0 -- -- 97
2019-09-23 05:00:00 14.5 2 Noroeste 4 Este 0 -- -- 96
2019-09-23 04:00:00 15.8 3 Noroeste 8 Oeste 0 -- -- 96
2019-09-23 03:00:00 16.3 3 Noroeste 5 Noroeste 0 -- -- 95
2019-09-23 02:00:00 17 3 Noroeste 6 Sudeste 0 -- -- 95
2019-09-23 01:00:00 17.6 5 Este 13 Oeste 0 -- -- 91
2019-09-23 00:00:00 19 9 Noroeste 16 Oeste 0 -- -- 89
2019-09-22 23:00:00 19.7 11 Noroeste 31 Oeste 0 -- -- 87
2019-09-22 22:00:00 20 22 Oeste 32 Oeste 0 -- -- 85
2019-09-22 21:00:00 20.5 25 Oeste 32 Oeste 0 -- -- 81
2019-09-22 20:00:00 21.7 22 Oeste 31 Noroeste 0 -- -- 73
2019-09-22 19:00:00 23.2 23 Oeste 32 Oeste 0 -- -- 66
2019-09-22 18:00:00 24.4 21 Oeste 32 Noroeste 0 -- -- 62
2019-09-22 17:00:00 24.9 22 Oeste 33 Oeste 0 -- -- 53
2019-09-22 16:00:00 24.4 21 Oeste 32 Noroeste 0 -- -- 51
2019-09-22 15:00:00 24.8 22 Oeste 32 Oeste 0 -- -- 48
2019-09-22 14:00:00 23.9 17 Oeste 28 Oeste 0.2 -- -- 51
2019-09-22 13:00:00 22.3 19 Oeste 25 Oeste 0 -- -- 73
2019-09-22 12:00:00 20.9 8 Oeste 18 Noroeste 0 -- -- 89
2019-09-22 11:00:00 19.2 10 Oeste 32 Noroeste 0.2 -- -- 96
2019-09-22 10:00:00 19.6 17 Oeste 29 Oeste 1 -- -- 97
2019-09-22 09:00:00 20.9 14 Sudoeste 22 Oeste 1.2 -- -- 94
2019-09-22 08:00:00 20.8 9 Sur 17 Sur 0 -- -- 93
2019-09-22 07:00:00 20.7 6 Sur 13 Sur 0 -- -- 93
2019-09-22 06:00:00 19.7 5 Sudeste 8 Sudeste 0 -- -- 93
2019-09-22 05:00:00 19.4 3 Sudeste 10 Sudeste 0 -- -- 93
2019-09-22 04:00:00 19.5 5 Sur 9 Sur 0 -- -- 92
2019-09-22 03:00:00 19.8 4 Sur 6 Sudeste 0 -- -- 90
2019-09-22 02:00:00 19.5 3 Sudeste 7 Sudeste 0 -- -- 86
2019-09-22 01:00:00 20 4 Nordeste 5 Nordeste 0 -- -- 82
2019-09-22 00:00:00 20.4 3 Este 8 Oeste 0 -- -- 84